sensor_id;sensor_type;location;lat;lon;timestamp;P1;durP1;ratioP1;P2;durP2;ratioP2
38318;SDS011;24121;53.536;10.224;2022-10-15T08:50:44;39.00;;;24.70;;
38318;SDS011;24121;53.536;10.224;2022-10-15T08:53:14;36.00;;;22.65;;
38318;SDS011;24121;53.536;10.224;2022-10-15T08:55:42;35.80;;;22.60;;
38318;SDS011;24121;53.536;10.224;2022-10-15T08:58:15;36.20;;;23.02;;
38318;SDS011;24121;53.536;10.224;2022-10-15T09:00:45;42.03;;;23.52;;
38318;SDS011;24121;53.536;10.224;2022-10-15T09:03:23;38.60;;;22.83;;
38318;SDS011;24121;53.536;10.224;2022-10-15T09:06:11;38.58;;;24.10;;
38318;SDS011;24121;53.536;10.224;2022-10-15T09:08:42;38.45;;;22.48;;
38318;SDS011;24121;53.536;10.224;2022-10-15T09:11:35;37.17;;;22.85;;
38318;SDS011;24121;53.536;10.224;2022-10-15T09:14:08;35.53;;;21.80;;
38318;SDS011;24121;53.536;10.224;2022-10-15T09:16:37;35.35;;;22.40;;
38318;SDS011;24121;53.536;10.224;2022-10-15T09:19:04;32.17;;;21.17;;
38318;SDS011;24121;53.536;10.224;2022-10-15T09:21:35;34.28;;;21.63;;
38318;SDS011;24121;53.536;10.224;2022-10-15T09:24:00;32.95;;;21.17;;
38318;SDS011;24121;53.536;10.224;2022-10-15T09:26:28;29.98;;;20.02;;
38318;SDS011;24121;53.536;10.224;2022-10-15T09:29:02;30.70;;;19.65;;
38318;SDS011;24121;53.536;10.224;2022-10-15T09:31:35;29.77;;;18.88;;
38318;SDS011;24121;53.536;10.224;2022-10-15T09:36:52;31.73;;;20.00;;
38318;SDS011;24121;53.536;10.224;2022-10-15T09:42:35;28.25;;;19.38;;
38318;SDS011;24121;53.536;10.224;2022-10-15T09:45:09;29.35;;;19.45;;
38318;SDS011;24121;53.536;10.224;2022-10-15T09:47:39;28.73;;;19.77;;
38318;SDS011;24121;53.536;10.224;2022-10-15T09:50:06;28.15;;;18.15;;
38318;SDS011;24121;53.536;10.224;2022-10-15T09:57:57;24.65;;;17.23;;
38318;SDS011;24121;53.536;10.224;2022-10-15T10:00:40;25.55;;;17.95;;
38318;SDS011;24121;53.536;10.224;2022-10-15T10:03:16;23.35;;;16.25;;
38318;SDS011;24121;53.536;10.224;2022-10-15T10:05:41;28.13;;;17.35;;
38318;SDS011;24121;53.536;10.224;2022-10-15T10:08:17;24.23;;;16.23;;
38318;SDS011;24121;53.536;10.224;2022-10-15T10:10:52;21.58;;;15.30;;
38318;SDS011;24121;53.536;10.224;2022-10-15T10:13:28;24.15;;;16.25;;
38318;SDS011;24121;53.536;10.224;2022-10-15T10:16:17;24.58;;;16.02;;
38318;SDS011;24121;53.536;10.224;2022-10-15T10:18:44;22.65;;;16.65;;
38318;SDS011;24121;53.536;10.224;2022-10-15T10:21:30;23.80;;;16.95;;
38318;SDS011;24121;53.536;10.224;2022-10-15T10:24:16;25.20;;;16.45;;
38318;SDS011;24121;53.536;10.224;2022-10-15T10:26:49;26.55;;;17.25;;
38318;SDS011;24121;53.536;10.224;2022-10-15T10:29:16;24.25;;;16.35;;
38318;SDS011;24121;53.536;10.224;2022-10-15T10:31:44;23.35;;;16.73;;
38318;SDS011;24121;53.536;10.224;2022-10-15T10:34:12;22.08;;;15.80;;
38318;SDS011;24121;53.536;10.224;2022-10-15T10:36:39;23.13;;;14.70;;
38318;SDS011;24121;53.536;10.224;2022-10-15T10:41:49;16.67;;;11.63;;
38318;SDS011;24121;53.536;10.224;2022-10-15T10:44:32;17.58;;;11.63;;
38318;SDS011;24121;53.536;10.224;2022-10-15T10:47:12;15.35;;;9.77;;
38318;SDS011;24121;53.536;10.224;2022-10-15T10:52:26;14.75;;;8.68;;
38318;SDS011;24121;53.536;10.224;2022-10-15T11:00:30;12.45;;;8.80;;
38318;SDS011;24121;53.536;10.224;2022-10-15T11:11:17;11.50;;;8.37;;
38318;SDS011;24121;53.536;10.224;2022-10-15T11:20:00;9.75;;;5.82;;
38318;SDS011;24121;53.536;10.224;2022-10-15T11:39:23;12.02;;;7.65;;
38318;SDS011;24121;53.536;10.224;2022-10-15T11:50:46;8.60;;;5.60;;
38318;SDS011;24121;53.536;10.224;2022-10-15T11:56:12;7.90;;;5.28;;
38318;SDS011;24121;53.536;10.224;2022-10-15T11:58:46;10.95;;;6.18;;
38318;SDS011;24121;53.536;10.224;2022-10-15T12:01:26;9.18;;;5.22;;
38318;SDS011;24121;53.536;10.224;2022-10-15T12:04:55;10.23;;;5.45;;
38318;SDS011;24121;53.536;10.224;2022-10-15T12:06:53;9.18;;;5.28;;
38318;SDS011;24121;53.536;10.224;2022-10-15T12:09:38;8.38;;;4.28;;
38318;SDS011;24121;53.536;10.224;2022-10-15T12:14:52;7.90;;;3.75;;
38318;SDS011;24121;53.536;10.224;2022-10-15T12:20:17;5.00;;;3.38;;
38318;SDS011;24121;53.536;10.224;2022-10-15T12:28:02;5.63;;;2.95;;
38318;SDS011;24121;53.536;10.224;2022-10-15T12:30:40;6.18;;;3.67;;
38318;SDS011;24121;53.536;10.224;2022-10-15T12:33:23;7.18;;;3.88;;
38318;SDS011;24121;53.536;10.224;2022-10-15T12:35:54;11.35;;;4.53;;
38318;SDS011;24121;53.536;10.224;2022-10-15T12:38:26;7.53;;;3.72;;
38318;SDS011;24121;53.536;10.224;2022-10-15T12:40:57;7.60;;;4.28;;
38318;SDS011;24121;53.536;10.224;2022-10-15T12:43:24;6.05;;;4.30;;
38318;SDS011;24121;53.536;10.224;2022-10-15T12:45:51;5.35;;;3.40;;
38318;SDS011;24121;53.536;10.224;2022-10-15T12:51:28;9.55;;;4.00;;
38318;SDS011;24121;53.536;10.224;2022-10-15T12:53:53;8.10;;;3.72;;
38318;SDS011;24121;53.536;10.224;2022-10-15T12:56:34;6.53;;;3.50;;
38318;SDS011;24121;53.536;10.224;2022-10-15T12:59:01;8.30;;;4.07;;
38318;SDS011;24121;53.536;10.224;2022-10-15T13:01:27;7.30;;;3.67;;
38318;SDS011;24121;53.536;10.224;2022-10-15T13:03:54;8.85;;;3.40;;
38318;SDS011;24121;53.536;10.224;2022-10-15T13:08:51;4.30;;;2.72;;
38318;SDS011;24121;53.536;10.224;2022-10-15T13:11:30;7.03;;;2.50;;
38318;SDS011;24121;53.536;10.224;2022-10-15T13:14:00;4.43;;;2.85;;
38318;SDS011;24121;53.536;10.224;2022-10-15T13:16:27;6.88;;;3.15;;
38318;SDS011;24121;53.536;10.224;2022-10-15T13:18:54;4.47;;;3.03;;
38318;SDS011;24121;53.536;10.224;2022-10-15T13:21:20;7.63;;;3.45;;
38318;SDS011;24121;53.536;10.224;2022-10-15T13:23:47;4.32;;;3.20;;
38318;SDS011;24121;53.536;10.224;2022-10-15T13:28:42;7.20;;;3.60;;
38318;SDS011;24121;53.536;10.224;2022-10-15T13:31:19;6.30;;;4.03;;
38318;SDS011;24121;53.536;10.224;2022-10-15T13:33:46;6.07;;;3.20;;
38318;SDS011;24121;53.536;10.224;2022-10-15T13:36:19;4.07;;;3.60;;
38318;SDS011;24121;53.536;10.224;2022-10-15T13:38:56;5.50;;;4.20;;
38318;SDS011;24121;53.536;10.224;2022-10-15T13:41:24;5.90;;;4.15;;
38318;SDS011;24121;53.536;10.224;2022-10-15T13:43:51;7.53;;;4.07;;
38318;SDS011;24121;53.536;10.224;2022-10-15T13:46:19;6.03;;;3.90;;
38318;SDS011;24121;53.536;10.224;2022-10-15T13:48:47;4.53;;;3.97;;
38318;SDS011;24121;53.536;10.224;2022-10-15T13:51:12;8.32;;;3.75;;
38318;SDS011;24121;53.536;10.224;2022-10-15T13:53:41;8.18;;;4.50;;
38318;SDS011;24121;53.536;10.224;2022-10-15T13:59:15;6.57;;;5.10;;
38318;SDS011;24121;53.536;10.224;2022-10-15T14:02:00;8.48;;;5.30;;
38318;SDS011;24121;53.536;10.224;2022-10-15T14:04:28;8.32;;;5.35;;
38318;SDS011;24121;53.536;10.224;2022-10-15T14:07:01;8.50;;;5.72;;
38318;SDS011;24121;53.536;10.224;2022-10-15T14:09:48;11.93;;;5.95;;
38318;SDS011;24121;53.536;10.224;2022-10-15T14:12:14;9.65;;;6.65;;
38318;SDS011;24121;53.536;10.224;2022-10-15T14:14:42;8.73;;;7.25;;
38318;SDS011;24121;53.536;10.224;2022-10-15T14:17:12;8.32;;;7.53;;
38318;SDS011;24121;53.536;10.224;2022-10-15T14:19:49;11.20;;;8.82;;
38318;SDS011;24121;53.536;10.224;2022-10-15T14:22:17;10.35;;;8.57;;
38318;SDS011;24121;53.536;10.224;2022-10-15T14:24:44;13.15;;;8.20;;
38318;SDS011;24121;53.536;10.224;2022-10-15T14:29:47;11.20;;;9.10;;
38318;SDS011;24121;53.536;10.224;2022-10-15T14:32:19;12.80;;;10.40;;
38318;SDS011;24121;53.536;10.224;2022-10-15T14:34:47;13.43;;;12.02;;
38318;SDS011;24121;53.536;10.224;2022-10-15T14:42:32;14.93;;;10.85;;
38318;SDS011;24121;53.536;10.224;2022-10-15T14:45:09;14.77;;;9.07;;
38318;SDS011;24121;53.536;10.224;2022-10-15T14:48:07;13.90;;;9.75;;
38318;SDS011;24121;53.536;10.224;2022-10-15T14:50:36;10.88;;;9.73;;
38318;SDS011;24121;53.536;10.224;2022-10-15T14:55:32;13.60;;;9.88;;
38318;SDS011;24121;53.536;10.224;2022-10-15T14:58:06;15.48;;;11.00;;
38318;SDS011;24121;53.536;10.224;2022-10-15T15:02:59;14.82;;;12.50;;
38318;SDS011;24121;53.536;10.224;2022-10-15T15:05:27;14.93;;;11.52;;
38318;SDS011;24121;53.536;10.224;2022-10-15T15:07:53;20.63;;;10.82;;
38318;SDS011;24121;53.536;10.224;2022-10-15T15:10:21;14.50;;;10.38;;
38318;SDS011;24121;53.536;10.224;2022-10-15T15:12:51;14.07;;;10.98;;
38318;SDS011;24121;53.536;10.224;2022-10-15T15:15:19;12.68;;;11.40;;
38318;SDS011;24121;53.536;10.224;2022-10-15T15:17:46;13.07;;;11.68;;
38318;SDS011;24121;53.536;10.224;2022-10-15T15:20:12;14.18;;;10.88;;
38318;SDS011;24121;53.536;10.224;2022-10-15T15:22:38;14.98;;;11.05;;
38318;SDS011;24121;53.536;10.224;2022-10-15T15:25:15;13.55;;;11.02;;
38318;SDS011;24121;53.536;10.224;2022-10-15T15:27:45;15.27;;;10.27;;
38318;SDS011;24121;53.536;10.224;2022-10-15T15:30:15;19.98;;;10.45;;
38318;SDS011;24121;53.536;10.224;2022-10-15T15:32:43;15.23;;;11.48;;
38318;SDS011;24121;53.536;10.224;2022-10-15T15:35:13;16.23;;;11.60;;
38318;SDS011;24121;53.536;10.224;2022-10-15T15:37:42;16.02;;;11.65;;
38318;SDS011;24121;53.536;10.224;2022-10-15T15:40:08;17.15;;;12.77;;
38318;SDS011;24121;53.536;10.224;2022-10-15T15:42:33;15.68;;;12.73;;
38318;SDS011;24121;53.536;10.224;2022-10-15T15:44:59;15.23;;;13.05;;
38318;SDS011;24121;53.536;10.224;2022-10-15T15:47:24;20.92;;;14.00;;
38318;SDS011;24121;53.536;10.224;2022-10-15T15:49:49;15.70;;;13.02;;
38318;SDS011;24121;53.536;10.224;2022-10-15T15:52:14;17.08;;;14.38;;
38318;SDS011;24121;53.536;10.224;2022-10-15T15:54:42;19.08;;;14.75;;
38318;SDS011;24121;53.536;10.224;2022-10-15T15:57:09;16.83;;;14.13;;
38318;SDS011;24121;53.536;10.224;2022-10-15T15:59:34;21.10;;;14.68;;
38318;SDS011;24121;53.536;10.224;2022-10-15T16:01:59;20.90;;;13.90;;
38318;SDS011;24121;53.536;10.224;2022-10-15T16:04:25;18.88;;;13.70;;
38318;SDS011;24121;53.536;10.224;2022-10-15T16:06:50;19.38;;;13.35;;
38318;SDS011;24121;53.536;10.224;2022-10-15T16:09:16;22.25;;;14.68;;
38318;SDS011;24121;53.536;10.224;2022-10-15T16:11:42;17.90;;;13.73;;
38318;SDS011;24121;53.536;10.224;2022-10-15T16:14:07;18.23;;;14.30;;
38318;SDS011;24121;53.536;10.224;2022-10-15T16:16:33;20.92;;;14.45;;
38318;SDS011;24121;53.536;10.224;2022-10-15T16:18:59;18.42;;;13.80;;
38318;SDS011;24121;53.536;10.224;2022-10-15T16:21:25;20.02;;;15.60;;
38318;SDS011;24121;53.536;10.224;2022-10-15T16:23:51;21.15;;;14.73;;
38318;SDS011;24121;53.536;10.224;2022-10-15T16:26:17;23.55;;;15.48;;
38318;SDS011;24121;53.536;10.224;2022-10-15T16:28:42;21.65;;;15.25;;
38318;SDS011;24121;53.536;10.224;2022-10-15T16:31:21;21.45;;;16.92;;
38318;SDS011;24121;53.536;10.224;2022-10-15T16:33:48;19.88;;;15.20;;
38318;SDS011;24121;53.536;10.224;2022-10-15T16:36:14;21.05;;;15.98;;
38318;SDS011;24121;53.536;10.224;2022-10-15T16:38:40;23.13;;;17.13;;
38318;SDS011;24121;53.536;10.224;2022-10-15T16:41:07;18.33;;;15.55;;
38318;SDS011;24121;53.536;10.224;2022-10-15T16:43:33;20.85;;;15.43;;
38318;SDS011;24121;53.536;10.224;2022-10-15T16:45:59;21.10;;;15.90;;
38318;SDS011;24121;53.536;10.224;2022-10-15T16:48:26;19.52;;;13.15;;
38318;SDS011;24121;53.536;10.224;2022-10-15T16:51:02;14.35;;;12.45;;
38318;SDS011;24121;53.536;10.224;2022-10-15T16:53:28;17.08;;;13.10;;
38318;SDS011;24121;53.536;10.224;2022-10-15T16:56:07;12.90;;;11.20;;
38318;SDS011;24121;53.536;10.224;2022-10-15T16:58:35;15.48;;;11.23;;
38318;SDS011;24121;53.536;10.224;2022-10-15T17:01:01;11.73;;;9.63;;
38318;SDS011;24121;53.536;10.224;2022-10-15T17:03:28;16.55;;;10.52;;
38318;SDS011;24121;53.536;10.224;2022-10-15T17:06:00;12.55;;;9.65;;
38318;SDS011;24121;53.536;10.224;2022-10-15T17:08:28;18.52;;;10.65;;
38318;SDS011;24121;53.536;10.224;2022-10-15T17:11:00;12.00;;;10.77;;
38318;SDS011;24121;53.536;10.224;2022-10-15T17:13:26;14.90;;;10.65;;
38318;SDS011;24121;53.536;10.224;2022-10-15T17:15:51;11.35;;;9.48;;
38318;SDS011;24121;53.536;10.224;2022-10-15T17:18:16;13.15;;;9.48;;
38318;SDS011;24121;53.536;10.224;2022-10-15T17:20:43;11.98;;;8.70;;
38318;SDS011;24121;53.536;10.224;2022-10-15T17:23:12;10.40;;;9.30;;
38318;SDS011;24121;53.536;10.224;2022-10-15T17:25:38;14.05;;;8.95;;
38318;SDS011;24121;53.536;10.224;2022-10-15T17:28:04;12.90;;;8.93;;
38318;SDS011;24121;53.536;10.224;2022-10-15T17:30:29;11.27;;;9.20;;
38318;SDS011;24121;53.536;10.224;2022-10-15T17:32:55;10.32;;;8.43;;
38318;SDS011;24121;53.536;10.224;2022-10-15T17:35:20;14.52;;;9.05;;
38318;SDS011;24121;53.536;10.224;2022-10-15T17:37:45;12.35;;;8.68;;
38318;SDS011;24121;53.536;10.224;2022-10-15T17:40:11;11.55;;;9.73;;
38318;SDS011;24121;53.536;10.224;2022-10-15T17:42:37;12.80;;;10.35;;
38318;SDS011;24121;53.536;10.224;2022-10-15T17:45:06;11.40;;;10.15;;
38318;SDS011;24121;53.536;10.224;2022-10-15T17:47:35;11.80;;;10.60;;
38318;SDS011;24121;53.536;10.224;2022-10-15T17:50:02;11.95;;;9.85;;
38318;SDS011;24121;53.536;10.224;2022-10-15T17:52:28;10.25;;;9.23;;
38318;SDS011;24121;53.536;10.224;2022-10-15T17:54:54;12.73;;;9.40;;
38318;SDS011;24121;53.536;10.224;2022-10-15T17:57:20;10.40;;;8.65;;
38318;SDS011;24121;53.536;10.224;2022-10-15T17:59:45;8.25;;;7.43;;
38318;SDS011;24121;53.536;10.224;2022-10-15T18:02:10;12.52;;;8.38;;
38318;SDS011;24121;53.536;10.224;2022-10-15T18:04:36;8.38;;;6.97;;
38318;SDS011;24121;53.536;10.224;2022-10-15T18:07:02;10.65;;;6.90;;
38318;SDS011;24121;53.536;10.224;2022-10-15T18:09:28;7.85;;;6.95;;
38318;SDS011;24121;53.536;10.224;2022-10-15T18:11:53;10.60;;;7.22;;
38318;SDS011;24121;53.536;10.224;2022-10-15T18:14:19;10.88;;;7.53;;
38318;SDS011;24121;53.536;10.224;2022-10-15T18:16:45;7.53;;;6.78;;
38318;SDS011;24121;53.536;10.224;2022-10-15T18:19:10;10.07;;;6.20;;
38318;SDS011;24121;53.536;10.224;2022-10-15T18:21:35;9.13;;;7.00;;
38318;SDS011;24121;53.536;10.224;2022-10-15T18:24:01;7.25;;;6.43;;
38318;SDS011;24121;53.536;10.224;2022-10-15T18:26:26;7.18;;;6.13;;
38318;SDS011;24121;53.536;10.224;2022-10-15T18:28:52;7.53;;;6.60;;
38318;SDS011;24121;53.536;10.224;2022-10-15T18:31:18;9.73;;;6.57;;
38318;SDS011;24121;53.536;10.224;2022-10-15T18:33:45;6.70;;;5.18;;
38318;SDS011;24121;53.536;10.224;2022-10-15T18:36:13;7.47;;;5.75;;
38318;SDS011;24121;53.536;10.224;2022-10-15T18:38:40;8.18;;;5.63;;
38318;SDS011;24121;53.536;10.224;2022-10-15T18:41:26;6.57;;;5.88;;
38318;SDS011;24121;53.536;10.224;2022-10-15T18:43:56;6.30;;;5.47;;
38318;SDS011;24121;53.536;10.224;2022-10-15T18:46:24;6.47;;;5.72;;
38318;SDS011;24121;53.536;10.224;2022-10-15T18:48:51;6.80;;;6.10;;
38318;SDS011;24121;53.536;10.224;2022-10-15T18:51:16;7.15;;;5.00;;
38318;SDS011;24121;53.536;10.224;2022-10-15T18:53:42;7.38;;;5.40;;
38318;SDS011;24121;53.536;10.224;2022-10-15T18:56:08;6.40;;;5.47;;
38318;SDS011;24121;53.536;10.224;2022-10-15T18:58:33;7.88;;;6.30;;
38318;SDS011;24121;53.536;10.224;2022-10-15T19:01:09;8.13;;;6.47;;
38318;SDS011;24121;53.536;10.224;2022-10-15T19:04:08;7.80;;;5.65;;
38318;SDS011;24121;53.536;10.224;2022-10-15T19:06:36;5.88;;;5.20;;
38318;SDS011;24121;53.536;10.224;2022-10-15T19:09:10;6.25;;;5.20;;
38318;SDS011;24121;53.536;10.224;2022-10-15T19:11:38;8.80;;;4.97;;
38318;SDS011;24121;53.536;10.224;2022-10-15T19:14:04;6.45;;;5.82;;
38318;SDS011;24121;53.536;10.224;2022-10-15T19:16:29;7.43;;;5.93;;
38318;SDS011;24121;53.536;10.224;2022-10-15T19:18:55;6.72;;;5.30;;
38318;SDS011;24121;53.536;10.224;2022-10-15T19:21:20;6.35;;;4.60;;
38318;SDS011;24121;53.536;10.224;2022-10-15T19:23:46;8.27;;;5.85;;
38318;SDS011;24121;53.536;10.224;2022-10-15T19:26:11;7.22;;;5.65;;
38318;SDS011;24121;53.536;10.224;2022-10-15T19:28:37;8.00;;;5.95;;
38318;SDS011;24121;53.536;10.224;2022-10-15T19:31:04;6.20;;;5.43;;
38318;SDS011;24121;53.536;10.224;2022-10-15T19:33:31;6.80;;;5.55;;
38318;SDS011;24121;53.536;10.224;2022-10-15T19:35:57;7.47;;;5.90;;
38318;SDS011;24121;53.536;10.224;2022-10-15T19:38:22;9.18;;;5.72;;
38318;SDS011;24121;53.536;10.224;2022-10-15T19:40:48;7.70;;;5.60;;
38318;SDS011;24121;53.536;10.224;2022-10-15T19:43:16;10.32;;;6.40;;
38318;SDS011;24121;53.536;10.224;2022-10-15T19:45:43;7.35;;;6.15;;
38318;SDS011;24121;53.536;10.224;2022-10-15T19:48:13;6.40;;;5.80;;
38318;SDS011;24121;53.536;10.224;2022-10-15T19:50:45;6.50;;;5.35;;
38318;SDS011;24121;53.536;10.224;2022-10-15T19:53:11;6.88;;;6.18;;
38318;SDS011;24121;53.536;10.224;2022-10-15T19:55:37;6.47;;;5.72;;
38318;SDS011;24121;53.536;10.224;2022-10-15T19:58:03;8.23;;;5.53;;
38318;SDS011;24121;53.536;10.224;2022-10-15T20:00:28;7.07;;;5.93;;
38318;SDS011;24121;53.536;10.224;2022-10-15T20:02:54;7.05;;;5.47;;
38318;SDS011;24121;53.536;10.224;2022-10-15T20:05:19;10.80;;;5.82;;
38318;SDS011;24121;53.536;10.224;2022-10-15T20:07:44;8.18;;;6.03;;
38318;SDS011;24121;53.536;10.224;2022-10-15T20:10:10;7.15;;;6.13;;
38318;SDS011;24121;53.536;10.224;2022-10-15T20:12:35;5.57;;;4.95;;
38318;SDS011;24121;53.536;10.224;2022-10-15T20:15:01;9.07;;;5.70;;
38318;SDS011;24121;53.536;10.224;2022-10-15T20:17:26;8.20;;;6.13;;
38318;SDS011;24121;53.536;10.224;2022-10-15T20:19:52;6.55;;;5.85;;
38318;SDS011;24121;53.536;10.224;2022-10-15T20:22:17;6.78;;;5.20;;
38318;SDS011;24121;53.536;10.224;2022-10-15T20:24:42;6.85;;;5.65;;
38318;SDS011;24121;53.536;10.224;2022-10-15T20:27:08;6.85;;;5.30;;
38318;SDS011;24121;53.536;10.224;2022-10-15T20:29:33;8.82;;;5.75;;
38318;SDS011;24121;53.536;10.224;2022-10-15T20:31:58;8.05;;;6.60;;
38318;SDS011;24121;53.536;10.224;2022-10-15T20:34:24;7.55;;;5.40;;
38318;SDS011;24121;53.536;10.224;2022-10-15T20:36:52;7.82;;;6.78;;
38318;SDS011;24121;53.536;10.224;2022-10-15T20:39:18;6.85;;;6.15;;
38318;SDS011;24121;53.536;10.224;2022-10-15T20:41:44;8.13;;;6.43;;
38318;SDS011;24121;53.536;10.224;2022-10-15T20:44:09;7.88;;;6.38;;
38318;SDS011;24121;53.536;10.224;2022-10-15T20:46:36;7.60;;;6.30;;
38318;SDS011;24121;53.536;10.224;2022-10-15T20:49:08;7.72;;;6.22;;
38318;SDS011;24121;53.536;10.224;2022-10-15T20:51:36;6.78;;;5.20;;
38318;SDS011;24121;53.536;10.224;2022-10-15T20:54:02;7.40;;;6.38;;
38318;SDS011;24121;53.536;10.224;2022-10-15T20:56:27;8.38;;;6.18;;
38318;SDS011;24121;53.536;10.224;2022-10-15T20:58:53;8.23;;;6.38;;
38318;SDS011;24121;53.536;10.224;2022-10-15T21:01:18;7.03;;;6.32;;
38318;SDS011;24121;53.536;10.224;2022-10-15T21:03:44;6.90;;;6.30;;
38318;SDS011;24121;53.536;10.224;2022-10-15T21:06:10;8.00;;;7.30;;
38318;SDS011;24121;53.536;10.224;2022-10-15T21:08:35;8.32;;;7.53;;
38318;SDS011;24121;53.536;10.224;2022-10-15T21:11:04;8.32;;;6.85;;
38318;SDS011;24121;53.536;10.224;2022-10-15T21:13:31;7.07;;;6.38;;
38318;SDS011;24121;53.536;10.224;2022-10-15T21:15:59;9.18;;;7.35;;
38318;SDS011;24121;53.536;10.224;2022-10-15T21:18:26;10.73;;;7.90;;
38318;SDS011;24121;53.536;10.224;2022-10-15T21:21:13;8.68;;;7.53;;
38318;SDS011;24121;53.536;10.224;2022-10-15T21:23:39;8.75;;;7.20;;
38318;SDS011;24121;53.536;10.224;2022-10-15T21:26:15;8.10;;;7.30;;
38318;SDS011;24121;53.536;10.224;2022-10-15T21:28:41;7.93;;;7.18;;
38318;SDS011;24121;53.536;10.224;2022-10-15T21:31:11;7.40;;;6.80;;
38318;SDS011;24121;53.536;10.224;2022-10-15T21:33:38;6.82;;;6.22;;
38318;SDS011;24121;53.536;10.224;2022-10-15T21:36:20;8.00;;;6.35;;
38318;SDS011;24121;53.536;10.224;2022-10-15T21:41:20;8.85;;;7.25;;
38318;SDS011;24121;53.536;10.224;2022-10-15T21:43:46;7.15;;;6.55;;
38318;SDS011;24121;53.536;10.224;2022-10-15T21:46:11;7.97;;;6.88;;
38318;SDS011;24121;53.536;10.224;2022-10-15T21:48:38;6.85;;;6.25;;
38318;SDS011;24121;53.536;10.224;2022-10-15T21:51:04;7.50;;;6.80;;
38318;SDS011;24121;53.536;10.224;2022-10-15T21:53:33;7.03;;;6.33;;
38318;SDS011;24121;53.536;10.224;2022-10-15T21:55:58;6.80;;;6.10;;
38318;SDS011;24121;53.536;10.224;2022-10-15T21:58:24;6.88;;;6.10;;
